sensor_id;sensor_type;location;lat;lon;timestamp;pressure;altitude;pressure_sealevel;temperature;humidity
79577;BME280;69045;48.136;11.386;2023-04-21T00:02:27;94940.19;;;10.41;70.93
79577;BME280;69045;48.136;11.386;2023-04-21T00:04:56;94942.38;;;10.44;70.67
79577;BME280;69045;48.136;11.386;2023-04-21T00:07:24;94942.47;;;10.37;72.27
79577;BME280;69045;48.136;11.386;2023-04-21T00:09:52;94944.06;;;10.38;71.45
79577;BME280;69045;48.136;11.386;2023-04-21T00:12:21;94937.00;;;10.39;71.63
79577;BME280;69045;48.136;11.386;2023-04-21T00:14:49;94935.66;;;10.18;72.43
79577;BME280;69045;48.136;11.386;2023-04-21T00:17:19;94946.63;;;10.27;71.98
79577;BME280;69045;48.136;11.386;2023-04-21T00:19:48;94941.56;;;10.13;72.93
79577;BME280;69045;48.136;11.386;2023-04-21T00:22:17;94943.16;;;10.15;73.08
79577;BME280;69045;48.136;11.386;2023-04-21T00:24:47;94942.72;;;10.18;73.15
79577;BME280;69045;48.136;11.386;2023-04-21T00:27:15;94939.00;;;10.25;71.91
79577;BME280;69045;48.136;11.386;2023-04-21T00:29:43;94941.75;;;10.30;72.41
79577;BME280;69045;48.136;11.386;2023-04-21T00:32:11;94930.50;;;10.30;71.88
79577;BME280;69045;48.136;11.386;2023-04-21T00:34:44;94925.59;;;10.33;71.74
79577;BME280;69045;48.136;11.386;2023-04-21T00:37:12;94925.97;;;10.37;72.21
79577;BME280;69045;48.136;11.386;2023-04-21T00:39:41;94919.78;;;10.31;72.08
79577;BME280;69045;48.136;11.386;2023-04-21T00:42:14;94926.16;;;10.24;72.00
79577;BME280;69045;48.136;11.386;2023-04-21T00:44:42;94917.50;;;10.35;71.66
79577;BME280;69045;48.136;11.386;2023-04-21T00:47:11;94919.09;;;10.36;71.76
79577;BME280;69045;48.136;11.386;2023-04-21T00:49:41;94922.97;;;10.33;72.18
79577;BME280;69045;48.136;11.386;2023-04-21T00:52:13;94918.75;;;10.32;72.37
79577;BME280;69045;48.136;11.386;2023-04-21T00:54:41;94910.13;;;10.32;71.38
79577;BME280;69045;48.136;11.386;2023-04-21T00:57:11;94905.31;;;10.29;71.85
79577;BME280;69045;48.136;11.386;2023-04-21T00:59:39;94896.56;;;10.35;72.39
79577;BME280;69045;48.136;11.386;2023-04-21T01:02:09;94904.13;;;10.43;71.67
79577;BME280;69045;48.136;11.386;2023-04-21T01:04:37;94900.47;;;10.44;71.42
79577;BME280;69045;48.136;11.386;2023-04-21T01:07:06;94899.44;;;10.45;71.12
79577;BME280;69045;48.136;11.386;2023-04-21T01:09:37;94908.09;;;10.46;71.21
79577;BME280;69045;48.136;11.386;2023-04-21T01:12:08;94915.47;;;10.49;70.82
79577;BME280;69045;48.136;11.386;2023-04-21T01:14:39;94910.59;;;10.52;70.86
79577;BME280;69045;48.136;11.386;2023-04-21T01:17:09;94904.09;;;10.55;71.35
79577;BME280;69045;48.136;11.386;2023-04-21T01:19:41;94895.34;;;10.61;70.48
79577;BME280;69045;48.136;11.386;2023-04-21T01:22:12;94901.75;;;10.65;70.53
79577;BME280;69045;48.136;11.386;2023-04-21T01:24:43;94900.59;;;10.61;70.89
79577;BME280;69045;48.136;11.386;2023-04-21T01:27:16;94888.28;;;10.61;70.42
79577;BME280;69045;48.136;11.386;2023-04-21T01:29:49;94899.78;;;10.60;69.99
79577;BME280;69045;48.136;11.386;2023-04-21T01:32:19;94902.75;;;10.52;70.55
79577;BME280;69045;48.136;11.386;2023-04-21T01:34:52;94902.84;;;10.46;71.01
79577;BME280;69045;48.136;11.386;2023-04-21T01:37:25;94893.63;;;10.55;70.20
79577;BME280;69045;48.136;11.386;2023-04-21T01:39:57;94902.97;;;10.62;70.46
79577;BME280;69045;48.136;11.386;2023-04-21T01:42:28;94900.81;;;10.59;70.76
79577;BME280;69045;48.136;11.386;2023-04-21T01:44:58;94905.25;;;10.47;71.70
79577;BME280;69045;48.136;11.386;2023-04-21T01:47:27;94910.34;;;10.42;70.76
79577;BME280;69045;48.136;11.386;2023-04-21T01:49:55;94910.00;;;10.38;71.41
79577;BME280;69045;48.136;11.386;2023-04-21T01:52:25;94906.81;;;10.25;71.70
79577;BME280;69045;48.136;11.386;2023-04-21T01:54:53;94899.41;;;10.33;72.60
79577;BME280;69045;48.136;11.386;2023-04-21T01:57:22;94906.47;;;10.33;72.50
79577;BME280;69045;48.136;11.386;2023-04-21T01:59:51;94911.72;;;10.33;72.75
79577;BME280;69045;48.136;11.386;2023-04-21T02:02:19;94901.34;;;10.26;72.21
79577;BME280;69045;48.136;11.386;2023-04-21T02:04:50;94902.53;;;10.12;72.10
79577;BME280;69045;48.136;11.386;2023-04-21T02:07:18;94903.88;;;10.03;73.34
79577;BME280;69045;48.136;11.386;2023-04-21T02:09:47;94901.38;;;10.08;73.35
79577;BME280;69045;48.136;11.386;2023-04-21T02:12:16;94896.97;;;10.20;71.67
79577;BME280;69045;48.136;11.386;2023-04-21T02:14:44;94898.16;;;10.24;72.59
79577;BME280;69045;48.136;11.386;2023-04-21T02:17:13;94906.34;;;10.28;71.48
79577;BME280;69045;48.136;11.386;2023-04-21T02:19:42;94905.31;;;10.29;72.36
79577;BME280;69045;48.136;11.386;2023-04-21T02:22:10;94899.41;;;10.33;72.36
79577;BME280;69045;48.136;11.386;2023-04-21T02:24:38;94900.91;;;10.41;72.24
79577;BME280;69045;48.136;11.386;2023-04-21T02:27:09;94897.50;;;10.41;71.91
79577;BME280;69045;48.136;11.386;2023-04-21T02:29:37;94888.59;;;10.42;71.16
79577;BME280;69045;48.136;11.386;2023-04-21T02:32:07;94887.13;;;10.34;72.01
79577;BME280;69045;48.136;11.386;2023-04-21T02:34:51;94884.97;;;10.31;72.04
79577;BME280;69045;48.136;11.386;2023-04-21T02:37:19;94895.06;;;10.27;72.46
79577;BME280;69045;48.136;11.386;2023-04-21T02:39:52;94886.09;;;10.23;72.22
79577;BME280;69045;48.136;11.386;2023-04-21T02:42:24;94878.41;;;10.10;72.33
79577;BME280;69045;48.136;11.386;2023-04-21T02:44:52;94877.38;;;10.11;72.88
79577;BME280;69045;48.136;11.386;2023-04-21T02:47:21;94877.41;;;10.23;72.96
79577;BME280;69045;48.136;11.386;2023-04-21T02:49:49;94876.97;;;10.26;72.63
79577;BME280;69045;48.136;11.386;2023-04-21T02:52:18;94880.41;;;10.26;72.53
79577;BME280;69045;48.136;11.386;2023-04-21T02:54:47;94870.06;;;10.31;72.22
79577;BME280;69045;48.136;11.386;2023-04-21T02:57:15;94873.81;;;10.35;72.17
79577;BME280;69045;48.136;11.386;2023-04-21T02:59:45;94874.38;;;10.37;72.67
79577;BME280;69045;48.136;11.386;2023-04-21T03:02:13;94866.53;;;10.37;71.73
79577;BME280;69045;48.136;11.386;2023-04-21T03:04:42;94879.03;;;10.35;72.29
79577;BME280;69045;48.136;11.386;2023-04-21T03:07:11;94879.63;;;10.37;72.22
79577;BME280;69045;48.136;11.386;2023-04-21T03:09:40;94874.59;;;10.36;72.76
79577;BME280;69045;48.136;11.386;2023-04-21T03:12:09;94871.19;;;10.35;72.49
79577;BME280;69045;48.136;11.386;2023-04-21T03:14:37;94874.81;;;10.34;72.69
79577;BME280;69045;48.136;11.386;2023-04-21T03:17:07;94880.97;;;10.28;72.99
79577;BME280;69045;48.136;11.386;2023-04-21T03:19:36;94878.47;;;10.33;72.93
79577;BME280;69045;48.136;11.386;2023-04-21T03:22:04;94883.38;;;10.30;73.01
79577;BME280;69045;48.136;11.386;2023-04-21T03:24:34;94888.19;;;10.15;73.96
79577;BME280;69045;48.136;11.386;2023-04-21T03:27:04;94889.34;;;10.19;73.60
79577;BME280;69045;48.136;11.386;2023-04-21T03:29:35;94896.09;;;10.26;73.42
79577;BME280;69045;48.136;11.386;2023-04-21T03:32:03;94887.47;;;10.26;73.42
79577;BME280;69045;48.136;11.386;2023-04-21T03:34:34;94882.38;;;10.12;73.65
79577;BME280;69045;48.136;11.386;2023-04-21T03:37:04;94881.94;;;10.16;74.77
79577;BME280;69045;48.136;11.386;2023-04-21T03:39:32;94877.63;;;10.21;73.81
79577;BME280;69045;48.136;11.386;2023-04-21T03:42:01;94876.31;;;10.30;72.98
79577;BME280;69045;48.136;11.386;2023-04-21T03:44:30;94875.97;;;10.27;73.70
79577;BME280;69045;48.136;11.386;2023-04-21T03:47:00;94866.94;;;10.23;73.65
79577;BME280;69045;48.136;11.386;2023-04-21T03:49:34;94858.97;;;10.18;73.96
79577;BME280;69045;48.136;11.386;2023-04-21T03:52:02;94858.59;;;10.14;73.59
79577;BME280;69045;48.136;11.386;2023-04-21T03:54:30;94851.88;;;10.06;73.64
79577;BME280;69045;48.136;11.386;2023-04-21T03:56:59;94855.63;;;9.99;74.01
79577;BME280;69045;48.136;11.386;2023-04-21T03:59:27;94860.84;;;9.99;74.54
79577;BME280;69045;48.136;11.386;2023-04-21T04:01:55;94867.00;;;10.04;74.51
79577;BME280;69045;48.136;11.386;2023-04-21T04:04:24;94873.03;;;10.05;74.13
79577;BME280;69045;48.136;11.386;2023-04-21T04:06:54;94883.50;;;10.05;73.81
79577;BME280;69045;48.136;11.386;2023-04-21T04:09:22;94887.59;;;10.01;74.46
79577;BME280;69045;48.136;11.386;2023-04-21T04:11:51;94896.13;;;9.96;74.06
79577;BME280;69045;48.136;11.386;2023-04-21T04:14:20;94895.88;;;9.98;74.52
79577;BME280;69045;48.136;11.386;2023-04-21T04:16:48;94896.22;;;10.01;74.06
79577;BME280;69045;48.136;11.386;2023-04-21T04:19:16;94886.56;;;10.02;73.75
79577;BME280;69045;48.136;11.386;2023-04-21T04:21:45;94892.94;;;10.06;74.05
79577;BME280;69045;48.136;11.386;2023-04-21T04:24:17;94890.91;;;10.08;73.34
79577;BME280;69045;48.136;11.386;2023-04-21T04:26:47;94895.94;;;10.09;73.88
79577;BME280;69045;48.136;11.386;2023-04-21T04:29:16;94903.56;;;10.11;72.77
79577;BME280;69045;48.136;11.386;2023-04-21T04:31:45;94896.50;;;10.11;73.54
79577;BME280;69045;48.136;11.386;2023-04-21T04:34:13;94891.41;;;10.17;73.27
79577;BME280;69045;48.136;11.386;2023-04-21T04:36:42;94887.75;;;10.18;72.93
79577;BME280;69045;48.136;11.386;2023-04-21T04:39:10;94895.84;;;10.16;72.92
79577;BME280;69045;48.136;11.386;2023-04-21T04:41:41;94890.13;;;10.19;74.74
79577;BME280;69045;48.136;11.386;2023-04-21T04:44:09;94887.75;;;10.18;73.46
79577;BME280;69045;48.136;11.386;2023-04-21T04:46:38;94891.59;;;10.15;72.91
79577;BME280;69045;48.136;11.386;2023-04-21T04:49:06;94894.69;;;10.12;73.12
79577;BME280;69045;48.136;11.386;2023-04-21T04:51:35;94898.88;;;10.13;73.24
79577;BME280;69045;48.136;11.386;2023-04-21T04:54:05;94895.69;;;10.11;73.23
79577;BME280;69045;48.136;11.386;2023-04-21T04:56:33;94907.19;;;10.10;72.92
79577;BME280;69045;48.136;11.386;2023-04-21T04:59:05;94899.34;;;10.10;73.91
79577;BME280;69045;48.136;11.386;2023-04-21T05:01:34;94904.69;;;10.15;73.08
79577;BME280;69045;48.136;11.386;2023-04-21T05:04:04;94907.66;;;10.19;72.81
79577;BME280;69045;48.136;11.386;2023-04-21T05:06:32;94909.50;;;10.18;73.27
79577;BME280;69045;48.136;11.386;2023-04-21T05:09:00;94901.63;;;10.18;73.28
79577;BME280;69045;48.136;11.386;2023-04-21T05:11:30;94906.00;;;10.24;73.13
79577;BME280;69045;48.136;11.386;2023-04-21T05:13:59;94903.38;;;10.24;73.15
79577;BME280;69045;48.136;11.386;2023-04-21T05:16:31;94915.84;;;10.22;72.87
79577;BME280;69045;48.136;11.386;2023-04-21T05:19:02;94918.13;;;10.19;73.36
79577;BME280;69045;48.136;11.386;2023-04-21T05:21:33;94918.69;;;10.21;74.02
79577;BME280;69045;48.136;11.386;2023-04-21T05:24:05;94921.72;;;10.24;73.50
79577;BME280;69045;48.136;11.386;2023-04-21T05:26:33;94919.88;;;10.25;73.88
79577;BME280;69045;48.136;11.386;2023-04-21T05:29:02;94913.84;;;10.24;73.98
79577;BME280;69045;48.136;11.386;2023-04-21T05:31:32;94920.53;;;10.20;74.00
79577;BME280;69045;48.136;11.386;2023-04-21T05:34:00;94909.03;;;10.21;73.75
79577;BME280;69045;48.136;11.386;2023-04-21T05:36:29;94915.75;;;10.17;74.41
79577;BME280;69045;48.136;11.386;2023-04-21T05:38:57;94914.94;;;10.17;73.94
79577;BME280;69045;48.136;11.386;2023-04-21T05:41:26;94912.09;;;10.18;74.92
79577;BME280;69045;48.136;11.386;2023-04-21T05:43:55;94918.63;;;10.27;74.03
79577;BME280;69045;48.136;11.386;2023-04-21T05:46:23;94924.34;;;10.36;73.93
79577;BME280;69045;48.136;11.386;2023-04-21T05:48:53;94920.03;;;10.42;74.13
79577;BME280;69045;48.136;11.386;2023-04-21T05:51:22;94925.34;;;10.23;74.13
79577;BME280;69045;48.136;11.386;2023-04-21T05:53:50;94918.41;;;10.29;74.89
79577;BME280;69045;48.136;11.386;2023-04-21T05:56:18;94929.06;;;10.57;74.06
79577;BME280;69045;48.136;11.386;2023-04-21T05:58:47;94926.69;;;10.68;72.96
79577;BME280;69045;48.136;11.386;2023-04-21T06:01:15;94917.00;;;10.80;72.16
79577;BME280;69045;48.136;11.386;2023-04-21T06:03:43;94918.13;;;11.19;71.29
79577;BME280;69045;48.136;11.386;2023-04-21T06:06:16;94905.88;;;11.48;71.13
79577;BME280;69045;48.136;11.386;2023-04-21T06:08:44;94907.72;;;11.76;69.75
79577;BME280;69045;48.136;11.386;2023-04-21T06:11:12;94906.78;;;11.94;67.88
79577;BME280;69045;48.136;11.386;2023-04-21T06:13:40;94907.47;;;12.18;67.57
79577;BME280;69045;48.136;11.386;2023-04-21T06:16:10;94904.53;;;12.31;65.93
79577;BME280;69045;48.136;11.386;2023-04-21T06:18:39;94903.69;;;12.42;65.18
79577;BME280;69045;48.136;11.386;2023-04-21T06:21:07;94907.84;;;12.55;66.10
79577;BME280;69045;48.136;11.386;2023-04-21T06:23:37;94905.34;;;12.65;65.16
79577;BME280;69045;48.136;11.386;2023-04-21T06:26:06;94897.66;;;12.75;63.97
79577;BME280;69045;48.136;11.386;2023-04-21T06:28:35;94898.56;;;12.86;63.66
79577;BME280;69045;48.136;11.386;2023-04-21T06:31:05;94900.88;;;12.99;62.40
79577;BME280;69045;48.136;11.386;2023-04-21T06:33:36;94894.94;;;13.26;64.34
79577;BME280;69045;48.136;11.386;2023-04-21T06:36:05;94894.16;;;13.47;61.96
79577;BME280;69045;48.136;11.386;2023-04-21T06:38:36;94900.22;;;13.70;61.97
79577;BME280;69045;48.136;11.386;2023-04-21T06:41:05;94893.81;;;13.82;61.13
79577;BME280;69045;48.136;11.386;2023-04-21T06:43:34;94888.44;;;13.99;60.53
79577;BME280;69045;48.136;11.386;2023-04-21T06:46:02;94889.16;;;14.16;60.56
79577;BME280;69045;48.136;11.386;2023-04-21T06:48:31;94884.28;;;14.35;59.71
79577;BME280;69045;48.136;11.386;2023-04-21T06:51:00;94881.84;;;14.51;58.87
79577;BME280;69045;48.136;11.386;2023-04-21T06:53:29;94888.53;;;14.63;58.57
79577;BME280;69045;48.136;11.386;2023-04-21T06:55:59;94893.84;;;14.73;58.02
79577;BME280;69045;48.136;11.386;2023-04-21T06:58:28;94890.22;;;14.80;57.28
79577;BME280;69045;48.136;11.386;2023-04-21T07:00:56;94892.91;;;14.85;57.13
79577;BME280;69045;48.136;11.386;2023-04-21T07:06:39;94897.16;;;14.96;57.15
79577;BME280;69045;48.136;11.386;2023-04-21T07:09:09;94891.09;;;14.95;56.42
79577;BME280;69045;48.136;11.386;2023-04-21T07:11:46;94891.97;;;15.06;56.56
79577;BME280;69045;48.136;11.386;2023-04-21T07:14:16;94893.88;;;15.16;56.51
79577;BME280;69045;48.136;11.386;2023-04-21T07:16:45;94896.59;;;15.31;55.91
79577;BME280;69045;48.136;11.386;2023-04-21T07:19:13;94899.53;;;15.40;54.84
79577;BME280;69045;48.136;11.386;2023-04-21T07:21:44;94891.16;;;15.53;55.28
79577;BME280;69045;48.136;11.386;2023-04-21T07:24:12;94895.72;;;15.63;54.65
79577;BME280;69045;48.136;11.386;2023-04-21T07:26:42;94886.56;;;15.91;55.34
79577;BME280;69045;48.136;11.386;2023-04-21T07:29:15;94888.22;;;16.22;54.36
79577;BME280;69045;48.136;11.386;2023-04-21T07:31:45;94891.69;;;16.43;53.31
79577;BME280;69045;48.136;11.386;2023-04-21T07:34:14;94889.56;;;16.50;51.00
79577;BME280;69045;48.136;11.386;2023-04-21T07:36:43;94894.06;;;16.40;51.08
79577;BME280;69045;48.136;11.386;2023-04-21T07:39:12;94906.19;;;16.30;50.66
79577;BME280;69045;48.136;11.386;2023-04-21T07:41:44;94905.91;;;16.17;51.64
79577;BME280;69045;48.136;11.386;2023-04-21T07:44:13;94912.78;;;16.13;51.49
79577;BME280;69045;48.136;11.386;2023-04-21T07:46:50;94906.69;;;16.12;52.05
79577;BME280;69045;48.136;11.386;2023-04-21T07:49:19;94906.44;;;16.24;52.75
79577;BME280;69045;48.136;11.386;2023-04-21T07:51:48;94898.81;;;16.32;51.93
79577;BME280;69045;48.136;11.386;2023-04-21T07:54:18;94902.00;;;16.40;52.49
79577;BME280;69045;48.136;11.386;2023-04-21T07:56:51;94899.78;;;15.86;51.48
79577;BME280;69045;48.136;11.386;2023-04-21T07:59:20;94900.25;;;15.72;51.58
79577;BME280;69045;48.136;11.386;2023-04-21T08:01:48;94903.19;;;15.91;51.73
79577;BME280;69045;48.136;11.386;2023-04-21T08:04:20;94909.53;;;15.85;50.74
79577;BME280;69045;48.136;11.386;2023-04-21T08:06:52;94907.94;;;15.89;51.78
79577;BME280;69045;48.136;11.386;2023-04-21T08:09:22;94907.72;;;16.01;52.25
79577;BME280;69045;48.136;11.386;2023-04-21T08:11:52;94905.13;;;16.31;51.61
79577;BME280;69045;48.136;11.386;2023-04-21T08:14:25;94903.59;;;16.61;52.31
79577;BME280;69045;48.136;11.386;2023-04-21T08:16:55;94908.59;;;16.52;49.64
79577;BME280;69045;48.136;11.386;2023-04-21T08:19:23;94906.25;;;16.61;49.40
79577;BME280;69045;48.136;11.386;2023-04-21T08:21:52;94903.59;;;16.86;49.14
79577;BME280;69045;48.136;11.386;2023-04-21T08:24:20;94899.31;;;17.31;49.83
79577;BME280;69045;48.136;11.386;2023-04-21T08:26:51;94897.94;;;17.44;49.40
79577;BME280;69045;48.136;11.386;2023-04-21T08:29:21;94901.28;;;17.85;47.98
79577;BME280;69045;48.136;11.386;2023-04-21T08:31:50;94894.78;;;18.12;47.42
79577;BME280;69045;48.136;11.386;2023-04-21T08:34:19;94897.13;;;18.58;46.16
79577;BME280;69045;48.136;11.386;2023-04-21T08:36:53;94900.47;;;18.73;45.10
79577;BME280;69045;48.136;11.386;2023-04-21T08:39:21;94894.84;;;19.09;45.16
79577;BME280;69045;48.136;11.386;2023-04-21T08:41:50;94892.34;;;19.47;44.36
79577;BME280;69045;48.136;11.386;2023-04-21T08:44:20;94894.56;;;19.87;43.47
79577;BME280;69045;48.136;11.386;2023-04-21T08:46:49;94895.47;;;19.78;43.18
79577;BME280;69045;48.136;11.386;2023-04-21T08:49:19;94891.31;;;19.90;42.97
79577;BME280;69045;48.136;11.386;2023-04-21T08:51:48;94887.63;;;19.92;43.40
79577;BME280;69045;48.136;11.386;2023-04-21T08:54:16;94892.13;;;19.91;43.44
79577;BME280;69045;48.136;11.386;2023-04-21T08:56:46;94889.09;;;19.98;43.76
79577;BME280;69045;48.136;11.386;2023-04-21T08:59:15;94886.09;;;20.04;42.98
79577;BME280;69045;48.136;11.386;2023-04-21T09:02:09;94885.78;;;20.49;42.04
79577;BME280;69045;48.136;11.386;2023-04-21T09:04:56;94880.75;;;20.47;42.32
79577;BME280;69045;48.136;11.386;2023-04-21T09:07:31;94882.31;;;20.48;41.65
79577;BME280;69045;48.136;11.386;2023-04-21T09:10:00;94886.91;;;20.61;42.13
79577;BME280;69045;48.136;11.386;2023-04-21T09:12:29;94878.25;;;20.69;42.42
79577;BME280;69045;48.136;11.386;2023-04-21T09:14:58;94883.44;;;20.80;41.58
79577;BME280;69045;48.136;11.386;2023-04-21T09:17:31;94873.53;;;20.66;41.26
79577;BME280;69045;48.136;11.386;2023-04-21T09:20:12;94877.47;;;20.69;39.46
79577;BME280;69045;48.136;11.386;2023-04-21T09:22:42;94874.75;;;20.74;41.18
79577;BME280;69045;48.136;11.386;2023-04-21T09:25:15;94867.84;;;20.73;41.18
79577;BME280;69045;48.136;11.386;2023-04-21T09:27:44;94869.16;;;20.89;41.67
79577;BME280;69045;48.136;11.386;2023-04-21T09:30:18;94867.19;;;20.95;41.35
79577;BME280;69045;48.136;11.386;2023-04-21T09:32:48;94860.28;;;20.94;40.64
79577;BME280;69045;48.136;11.386;2023-04-21T09:35:16;94859.13;;;21.00;39.68
79577;BME280;69045;48.136;11.386;2023-04-21T09:37:45;94868.81;;;20.77;40.23
79577;BME280;69045;48.136;11.386;2023-04-21T09:40:13;94859.94;;;20.68;40.45
79577;BME280;69045;48.136;11.386;2023-04-21T09:42:45;94866.94;;;20.26;40.61
79577;BME280;69045;48.136;11.386;2023-04-21T09:45:16;94870.34;;;19.89;41.77
79577;BME280;69045;48.136;11.386;2023-04-21T09:47:49;94872.72;;;19.90;42.78
79577;BME280;69045;48.136;11.386;2023-04-21T09:50:20;94869.09;;;20.05;41.64
79577;BME280;69045;48.136;11.386;2023-04-21T09:53:15;94865.84;;;20.08;42.21
79577;BME280;69045;48.136;11.386;2023-04-21T09:55:50;94860.00;;;20.44;42.82
79577;BME280;69045;48.136;11.386;2023-04-21T09:58:26;94860.34;;;20.75;40.09
79577;BME280;69045;48.136;11.386;2023-04-21T10:00:56;94848.63;;;20.90;41.67
79577;BME280;69045;48.136;11.386;2023-04-21T10:03:30;94849.88;;;21.25;40.06
79577;BME280;69045;48.136;11.386;2023-04-21T10:05:59;94853.97;;;21.64;40.35
79577;BME280;69045;48.136;11.386;2023-04-21T10:08:29;94857.44;;;22.14;39.89
79577;BME280;69045;48.136;11.386;2023-04-21T10:10:59;94850.88;;;22.79;39.40
79577;BME280;69045;48.136;11.386;2023-04-21T10:13:29;94853.69;;;23.27;37.90
79577;BME280;69045;48.136;11.386;2023-04-21T10:16:01;94842.84;;;23.32;36.82
79577;BME280;69045;48.136;11.386;2023-04-21T10:18:36;94840.78;;;23.29;36.88
79577;BME280;69045;48.136;11.386;2023-04-21T10:21:07;94849.47;;;23.83;37.79
79577;BME280;69045;48.136;11.386;2023-04-21T10:23:40;94856.03;;;24.43;36.25
79577;BME280;69045;48.136;11.386;2023-04-21T10:26:12;94853.19;;;24.57;35.44
79577;BME280;69045;48.136;11.386;2023-04-21T10:28:44;94843.56;;;24.82;35.59
79577;BME280;69045;48.136;11.386;2023-04-21T10:31:29;94840.22;;;24.85;35.38
79577;BME280;69045;48.136;11.386;2023-04-21T10:34:28;94835.41;;;25.25;35.97
79577;BME280;69045;48.136;11.386;2023-04-21T10:37:11;94836.94;;;25.43;34.19
79577;BME280;69045;48.136;11.386;2023-04-21T10:39:51;94837.16;;;25.59;34.14
79577;BME280;69045;48.136;11.386;2023-04-21T10:42:25;94841.06;;;25.70;34.22
79577;BME280;69045;48.136;11.386;2023-04-21T10:45:10;94827.81;;;25.65;32.31
79577;BME280;69045;48.136;11.386;2023-04-21T10:47:59;94829.53;;;25.70;34.05
79577;BME280;69045;48.136;11.386;2023-04-21T10:50:31;94829.63;;;25.52;33.18
79577;BME280;69045;48.136;11.386;2023-04-21T10:53:08;94827.53;;;25.28;33.85
79577;BME280;69045;48.136;11.386;2023-04-21T10:55:38;94826.66;;;25.45;34.93
79577;BME280;69045;48.136;11.386;2023-04-21T10:58:08;94828.72;;;25.48;32.67
79577;BME280;69045;48.136;11.386;2023-04-21T11:00:37;94823.28;;;25.27;33.38
79577;BME280;69045;48.136;11.386;2023-04-21T11:03:07;94828.94;;;24.62;33.90
79577;BME280;69045;48.136;11.386;2023-04-21T11:05:39;94831.72;;;24.05;36.10
79577;BME280;69045;48.136;11.386;2023-04-21T11:08:12;94831.13;;;23.99;36.89
79577;BME280;69045;48.136;11.386;2023-04-21T11:10:56;94817.91;;;24.20;37.00
79577;BME280;69045;48.136;11.386;2023-04-21T11:13:27;94830.19;;;24.38;36.00
79577;BME280;69045;48.136;11.386;2023-04-21T11:16:05;94820.59;;;24.37;34.70
79577;BME280;69045;48.136;11.386;2023-04-21T11:18:39;94819.97;;;24.49;35.45
79577;BME280;69045;48.136;11.386;2023-04-21T11:21:12;94815.69;;;24.57;34.72
79577;BME280;69045;48.136;11.386;2023-04-21T11:23:50;94809.56;;;24.47;35.38
79577;BME280;69045;48.136;11.386;2023-04-21T11:26:29;94801.16;;;24.75;35.10
79577;BME280;69045;48.136;11.386;2023-04-21T11:29:00;94799.09;;;24.89;35.08
79577;BME280;69045;48.136;11.386;2023-04-21T11:31:30;94803.50;;;24.85;34.75
79577;BME280;69045;48.136;11.386;2023-04-21T11:34:01;94805.34;;;25.02;35.12
79577;BME280;69045;48.136;11.386;2023-04-21T11:36:32;94821.19;;;24.86;33.51
79577;BME280;69045;48.136;11.386;2023-04-21T11:39:05;94812.38;;;24.51;34.59
79577;BME280;69045;48.136;11.386;2023-04-21T11:41:38;94808.28;;;24.45;34.68
79577;BME280;69045;48.136;11.386;2023-04-21T11:44:13;94809.69;;;24.51;35.74
79577;BME280;69045;48.136;11.386;2023-04-21T11:46:43;94813.19;;;24.43;34.95
79577;BME280;69045;48.136;11.386;2023-04-21T11:49:14;94807.50;;;24.27;36.13
79577;BME280;69045;48.136;11.386;2023-04-21T11:51:45;94810.03;;;24.41;37.17
79577;BME280;69045;48.136;11.386;2023-04-21T11:54:16;94805.59;;;24.62;36.87
79577;BME280;69045;48.136;11.386;2023-04-21T11:56:47;94802.59;;;24.64;36.53
79577;BME280;69045;48.136;11.386;2023-04-21T11:59:21;94799.91;;;24.64;36.74
79577;BME280;69045;48.136;11.386;2023-04-21T12:01:53;94795.06;;;24.66;36.70
79577;BME280;69045;48.136;11.386;2023-04-21T12:04:24;94793.25;;;24.78;36.01
79577;BME280;69045;48.136;11.386;2023-04-21T12:06:59;94798.66;;;24.70;37.07
79577;BME280;69045;48.136;11.386;2023-04-21T12:09:31;94790.63;;;24.70;37.80
79577;BME280;69045;48.136;11.386;2023-04-21T12:12:04;94790.28;;;24.80;37.78
79577;BME280;69045;48.136;11.386;2023-04-21T12:14:32;94795.28;;;24.90;37.09
79577;BME280;69045;48.136;11.386;2023-04-21T12:17:10;94793.72;;;24.89;36.33
79577;BME280;69045;48.136;11.386;2023-04-21T12:19:41;94788.19;;;24.86;37.63
79577;BME280;69045;48.136;11.386;2023-04-21T12:22:14;94794.53;;;24.72;37.95
79577;BME280;69045;48.136;11.386;2023-04-21T12:24:43;94790.97;;;24.60;37.39
79577;BME280;69045;48.136;11.386;2023-04-21T12:27:15;94790.81;;;24.56;36.94
79577;BME280;69045;48.136;11.386;2023-04-21T12:29:45;94787.03;;;24.48;37.77
79577;BME280;69045;48.136;11.386;2023-04-21T12:32:14;94790.81;;;24.47;38.33
79577;BME280;69045;48.136;11.386;2023-04-21T12:34:42;94788.13;;;24.56;38.16
79577;BME280;69045;48.136;11.386;2023-04-21T12:37:12;94786.53;;;24.64;37.02
79577;BME280;69045;48.136;11.386;2023-04-21T12:39:41;94785.72;;;24.81;37.96
79577;BME280;69045;48.136;11.386;2023-04-21T12:42:13;94788.41;;;24.81;36.86
79577;BME280;69045;48.136;11.386;2023-04-21T12:44:42;94786.81;;;24.71;37.02
79577;BME280;69045;48.136;11.386;2023-04-21T12:47:10;94781.13;;;24.72;37.95
79577;BME280;69045;48.136;11.386;2023-04-21T12:49:39;94773.88;;;24.82;37.92
79577;BME280;69045;48.136;11.386;2023-04-21T12:52:08;94787.97;;;24.61;37.30
79577;BME280;69045;48.136;11.386;2023-04-21T12:54:38;94786.19;;;24.65;38.51
79577;BME280;69045;48.136;11.386;2023-04-21T12:57:09;94779.94;;;24.53;38.63
79577;BME280;69045;48.136;11.386;2023-04-21T12:59:38;94781.84;;;24.43;37.84
79577;BME280;69045;48.136;11.386;2023-04-21T13:02:10;94779.31;;;24.38;38.42
79577;BME280;69045;48.136;11.386;2023-04-21T13:04:39;94781.84;;;24.26;38.49
79577;BME280;69045;48.136;11.386;2023-04-21T13:07:09;94780.41;;;24.20;38.75
79577;BME280;69045;48.136;11.386;2023-04-21T13:09:40;94789.25;;;24.12;38.85
79577;BME280;69045;48.136;11.386;2023-04-21T13:12:10;94785.59;;;24.08;39.13